Aviation Digital Data Service (ADDS)

Output produced by METARs form (1845 UTC 22 May 2019)
found at http://aviationweather.gov/metar/data/
 
METAR text: KUAO 221753Z 14004KT 10SM BKN028 BKN033 17/10 A3001 RMK AO2 SLP159 T01670100 10172 20100 53005
Conditions at: KUAO (AURORA , OR, US) observed 1753 UTC 22 May 2019
Temperature: 16.7°C (62°F)
Dewpoint: 10.0°C (50°F) [RH = 65%]
Pressure (altimeter): 30.01 inches Hg (1016.3 mb)
[Sea-level pressure: 1015.9 mb]
Winds: from the SE (140 degrees) at 5 MPH (4 knots; 2.1 m/s)
Visibility: 10 or more miles (16+ km)
Ceiling: 2800 feet AGL
Clouds: broken clouds at 2800 feet AGL
broken clouds at 3300 feet AGL
Weather: no significant weather observed at this time

METAR text: KUAO 221725Z 00000KT 10SM BKN027 17/09 A3000 RMK AO2 T01720089
Conditions at: KUAO (AURORA , OR, US) observed 1725 UTC 22 May 2019
Temperature: 17.2°C (63°F)
Dewpoint: 8.9°C (48°F) [RH = 58%]
Pressure (altimeter): 30.00 inches Hg (1016.0 mb)
Winds: calm
Visibility: 10 or more miles (16+ km)
Ceiling: 2700 feet AGL
Clouds: broken clouds at 2700 feet AGL
Weather: no significant weather observed at this time

METAR text: KUAO 221653Z 00000KT 10SM SCT023 16/09 A3000 RMK AO2 SLP157 T01610089
Conditions at: KUAO (AURORA , OR, US) observed 1653 UTC 22 May 2019
Temperature: 16.1°C (61°F)
Dewpoint: 8.9°C (48°F) [RH = 62%]
Pressure (altimeter): 30.00 inches Hg (1016.0 mb)
[Sea-level pressure: 1015.7 mb]
Winds: calm
Visibility: 10 or more miles (16+ km)
Ceiling: at least 12,000 feet AGL
Clouds: scattered clouds at 2300 feet AGL
Weather: no significant weather observed at this time

Forecast for: KUAO (AURORA , OR, US)
Text: KUAO 221728Z 2218/2318 VRB03KT P6SM SCT020 BKN120
Forecast period: 1800 to 2100 UTC 22 May 2019
Forecast type: FROM: standard forecast or significant change
Winds: variable direction winds at 3 MPH (3 knots; 1.5 m/s)
Visibility: 6 or more miles 10+ km)
Ceiling: 12000 feet AGL
Clouds: scattered clouds at 2000 feet AGL
broken clouds at 12000 feet AGL
Weather: no significant weather forecast for this period
Text: FM222100 35005KT P6SM SCT035 BKN120
Forecast period: 2100 UTC 22 May 2019 to 0100 UTC 23 May 2019
Forecast type: FROM: standard forecast or significant change
Winds: from the N (350 degrees) at 6 MPH (5 knots; 2.6 m/s)
Visibility: 6 or more miles 10+ km)
Ceiling: 12000 feet AGL
Clouds: scattered clouds at 3500 feet AGL
broken clouds at 12000 feet AGL
Weather: no significant weather forecast for this period
Text: FM230100 31004KT P6SM SCT040 BKN090
Forecast period: 0100 to 0700 UTC 23 May 2019
Forecast type: FROM: standard forecast or significant change
Winds: from the NW (310 degrees) at 5 MPH (4 knots; 2.1 m/s)
Visibility: 6 or more miles 10+ km)
Ceiling: 9000 feet AGL
Clouds: scattered clouds at 4000 feet AGL
broken clouds at 9000 feet AGL
Weather: no significant weather forecast for this period
Text: FM230700 VRB02KT P6SM BKN040 OVC060
Forecast period: 0700 to 1100 UTC 23 May 2019
Forecast type: FROM: standard forecast or significant change
Winds: variable direction winds at 2 MPH (2 knots; 1.0 m/s)
Visibility: 6 or more miles 10+ km)
Ceiling: 4000 feet AGL
Clouds: broken clouds at 4000 feet AGL
overcast cloud deck at 6000 feet AGL
Weather: no significant weather forecast for this period
Text: FM231100 23002KT P6SM BKN025 OVC040
Forecast period: 1100 to 1800 UTC 23 May 2019
Forecast type: FROM: standard forecast or significant change
Winds: from the SW (230 degrees) at 2 MPH (2 knots; 1.0 m/s)
Visibility: 6 or more miles 10+ km)
Ceiling: 2500 feet AGL
Clouds: broken clouds at 2500 feet AGL
overcast cloud deck at 4000 feet AGL
Weather: no significant weather forecast for this period